sensor_id;sensor_type;location;lat;lon;timestamp;P1;durP1;ratioP1;P2;durP2;ratioP2
61389;SDS011;47260;48.274;19.814;2023-04-25T00:00:35;37.10;;;21.30;;
61389;SDS011;47260;48.274;19.814;2023-04-25T00:02:06;33.85;;;18.80;;
61389;SDS011;47260;48.274;19.814;2023-04-25T00:03:40;33.38;;;18.90;;
61389;SDS011;47260;48.274;19.814;2023-04-25T00:05:11;34.53;;;19.38;;
61389;SDS011;47260;48.274;19.814;2023-04-25T00:06:45;33.17;;;19.20;;
61389;SDS011;47260;48.274;19.814;2023-04-25T00:08:16;36.25;;;19.20;;
61389;SDS011;47260;48.274;19.814;2023-04-25T00:09:48;35.95;;;18.90;;
61389;SDS011;47260;48.274;19.814;2023-04-25T00:11:20;31.02;;;18.08;;
61389;SDS011;47260;48.274;19.814;2023-04-25T00:12:51;33.33;;;18.92;;
61389;SDS011;47260;48.274;19.814;2023-04-25T00:14:23;36.10;;;19.60;;
61389;SDS011;47260;48.274;19.814;2023-04-25T00:15:55;33.60;;;19.73;;
61389;SDS011;47260;48.274;19.814;2023-04-25T00:17:28;32.30;;;18.83;;
61389;SDS011;47260;48.274;19.814;2023-04-25T00:19:01;32.65;;;19.50;;
61389;SDS011;47260;48.274;19.814;2023-04-25T00:20:33;34.35;;;19.17;;
61389;SDS011;47260;48.274;19.814;2023-04-25T00:22:05;33.25;;;18.55;;
61389;SDS011;47260;48.274;19.814;2023-04-25T00:23:36;31.80;;;18.38;;
61389;SDS011;47260;48.274;19.814;2023-04-25T00:25:09;30.02;;;18.08;;
61389;SDS011;47260;48.274;19.814;2023-04-25T00:26:40;30.13;;;17.50;;
61389;SDS011;47260;48.274;19.814;2023-04-25T00:28:12;28.38;;;18.10;;
61389;SDS011;47260;48.274;19.814;2023-04-25T00:29:44;32.90;;;18.10;;
61389;SDS011;47260;48.274;19.814;2023-04-25T00:31:15;32.17;;;18.08;;
61389;SDS011;47260;48.274;19.814;2023-04-25T00:32:46;31.75;;;16.95;;
61389;SDS011;47260;48.274;19.814;2023-04-25T00:34:20;28.65;;;17.75;;
61389;SDS011;47260;48.274;19.814;2023-04-25T00:35:52;32.83;;;18.35;;
61389;SDS011;47260;48.274;19.814;2023-04-25T00:37:23;27.85;;;16.80;;
61389;SDS011;47260;48.274;19.814;2023-04-25T00:38:55;31.13;;;18.67;;
61389;SDS011;47260;48.274;19.814;2023-04-25T00:40:26;29.10;;;17.48;;
61389;SDS011;47260;48.274;19.814;2023-04-25T00:41:58;33.22;;;18.38;;
61389;SDS011;47260;48.274;19.814;2023-04-25T00:43:32;28.50;;;17.00;;
61389;SDS011;47260;48.274;19.814;2023-04-25T00:45:05;27.38;;;16.98;;
61389;SDS011;47260;48.274;19.814;2023-04-25T00:46:38;32.70;;;18.52;;
61389;SDS011;47260;48.274;19.814;2023-04-25T00:48:09;31.17;;;17.83;;
61389;SDS011;47260;48.274;19.814;2023-04-25T00:49:43;31.35;;;18.65;;
61389;SDS011;47260;48.274;19.814;2023-04-25T00:51:16;30.70;;;17.98;;
61389;SDS011;47260;48.274;19.814;2023-04-25T00:52:50;28.10;;;17.60;;
61389;SDS011;47260;48.274;19.814;2023-04-25T00:54:22;36.30;;;18.77;;
61389;SDS011;47260;48.274;19.814;2023-04-25T00:55:54;29.85;;;17.58;;
61389;SDS011;47260;48.274;19.814;2023-04-25T00:57:26;32.42;;;19.27;;
61389;SDS011;47260;48.274;19.814;2023-04-25T00:58:58;35.90;;;19.65;;
61389;SDS011;47260;48.274;19.814;2023-04-25T01:00:30;31.75;;;18.17;;
61389;SDS011;47260;48.274;19.814;2023-04-25T01:02:02;33.75;;;18.67;;
61389;SDS011;47260;48.274;19.814;2023-04-25T01:03:34;32.63;;;19.55;;
61389;SDS011;47260;48.274;19.814;2023-04-25T01:05:12;33.97;;;18.73;;
61389;SDS011;47260;48.274;19.814;2023-04-25T01:06:43;33.22;;;19.92;;
61389;SDS011;47260;48.274;19.814;2023-04-25T01:08:16;31.67;;;18.55;;
61389;SDS011;47260;48.274;19.814;2023-04-25T01:09:47;34.80;;;19.67;;
61389;SDS011;47260;48.274;19.814;2023-04-25T01:11:19;34.97;;;19.85;;
61389;SDS011;47260;48.274;19.814;2023-04-25T01:12:51;37.78;;;20.35;;
61389;SDS011;47260;48.274;19.814;2023-04-25T01:14:23;37.63;;;20.00;;
61389;SDS011;47260;48.274;19.814;2023-04-25T01:15:55;36.25;;;19.70;;
61389;SDS011;47260;48.274;19.814;2023-04-25T01:17:27;32.53;;;19.95;;
61389;SDS011;47260;48.274;19.814;2023-04-25T01:19:00;32.90;;;18.77;;
61389;SDS011;47260;48.274;19.814;2023-04-25T01:20:32;31.83;;;19.45;;
61389;SDS011;47260;48.274;19.814;2023-04-25T01:22:06;36.53;;;20.05;;
61389;SDS011;47260;48.274;19.814;2023-04-25T01:23:37;34.53;;;19.77;;
61389;SDS011;47260;48.274;19.814;2023-04-25T01:25:10;32.08;;;18.88;;
61389;SDS011;47260;48.274;19.814;2023-04-25T01:26:41;31.83;;;19.20;;
61389;SDS011;47260;48.274;19.814;2023-04-25T01:28:20;30.88;;;18.83;;
61389;SDS011;47260;48.274;19.814;2023-04-25T01:29:52;34.22;;;19.10;;
61389;SDS011;47260;48.274;19.814;2023-04-25T01:31:26;30.75;;;20.08;;
61389;SDS011;47260;48.274;19.814;2023-04-25T01:32:58;34.08;;;19.67;;
61389;SDS011;47260;48.274;19.814;2023-04-25T01:34:32;29.98;;;18.52;;
61389;SDS011;47260;48.274;19.814;2023-04-25T01:36:04;30.60;;;19.35;;
61389;SDS011;47260;48.274;19.814;2023-04-25T01:37:40;31.20;;;18.40;;
61389;SDS011;47260;48.274;19.814;2023-04-25T01:39:12;28.27;;;17.10;;
61389;SDS011;47260;48.274;19.814;2023-04-25T01:40:44;28.33;;;17.60;;
61389;SDS011;47260;48.274;19.814;2023-04-25T01:42:17;28.25;;;17.60;;
61389;SDS011;47260;48.274;19.814;2023-04-25T01:43:49;29.83;;;18.13;;
61389;SDS011;47260;48.274;19.814;2023-04-25T01:45:21;29.55;;;18.10;;
61389;SDS011;47260;48.274;19.814;2023-04-25T01:46:52;31.08;;;18.38;;
61389;SDS011;47260;48.274;19.814;2023-04-25T01:48:24;30.05;;;18.23;;
61389;SDS011;47260;48.274;19.814;2023-04-25T01:49:56;29.15;;;17.38;;
61389;SDS011;47260;48.274;19.814;2023-04-25T01:51:28;27.10;;;17.58;;
61389;SDS011;47260;48.274;19.814;2023-04-25T01:53:02;28.33;;;17.60;;
61389;SDS011;47260;48.274;19.814;2023-04-25T01:54:34;28.60;;;16.90;;
61389;SDS011;47260;48.274;19.814;2023-04-25T01:56:06;26.60;;;16.55;;
61389;SDS011;47260;48.274;19.814;2023-04-25T01:57:39;25.00;;;15.68;;
61389;SDS011;47260;48.274;19.814;2023-04-25T01:59:11;25.45;;;16.35;;
61389;SDS011;47260;48.274;19.814;2023-04-25T02:01:18;26.60;;;15.60;;
61389;SDS011;47260;48.274;19.814;2023-04-25T02:03:04;25.60;;;16.35;;
61389;SDS011;47260;48.274;19.814;2023-04-25T02:04:37;26.73;;;16.35;;
61389;SDS011;47260;48.274;19.814;2023-04-25T02:06:09;25.20;;;17.02;;
61389;SDS011;47260;48.274;19.814;2023-04-25T02:07:44;25.02;;;16.20;;
61389;SDS011;47260;48.274;19.814;2023-04-25T02:09:18;30.02;;;17.27;;
61389;SDS011;47260;48.274;19.814;2023-04-25T02:10:55;26.67;;;17.50;;
61389;SDS011;47260;48.274;19.814;2023-04-25T02:12:28;25.88;;;16.67;;
61389;SDS011;47260;48.274;19.814;2023-04-25T02:14:03;26.80;;;17.95;;
61389;SDS011;47260;48.274;19.814;2023-04-25T02:15:41;27.92;;;16.30;;
61389;SDS011;47260;48.274;19.814;2023-04-25T02:17:21;27.15;;;17.48;;
61389;SDS011;47260;48.274;19.814;2023-04-25T02:18:54;23.10;;;15.23;;
61389;SDS011;47260;48.274;19.814;2023-04-25T02:20:26;24.63;;;16.13;;
61389;SDS011;47260;48.274;19.814;2023-04-25T02:21:59;25.60;;;16.55;;
61389;SDS011;47260;48.274;19.814;2023-04-25T02:23:31;23.17;;;14.95;;
61389;SDS011;47260;48.274;19.814;2023-04-25T02:25:06;27.38;;;17.08;;
61389;SDS011;47260;48.274;19.814;2023-04-25T02:26:38;26.15;;;16.98;;
61389;SDS011;47260;48.274;19.814;2023-04-25T02:28:12;24.83;;;15.60;;
61389;SDS011;47260;48.274;19.814;2023-04-25T02:29:44;23.73;;;15.02;;
61389;SDS011;47260;48.274;19.814;2023-04-25T02:31:16;23.42;;;15.27;;
61389;SDS011;47260;48.274;19.814;2023-04-25T02:32:47;22.45;;;14.13;;
61389;SDS011;47260;48.274;19.814;2023-04-25T02:34:19;18.60;;;13.52;;
61389;SDS011;47260;48.274;19.814;2023-04-25T02:35:50;18.60;;;13.30;;
61389;SDS011;47260;48.274;19.814;2023-04-25T02:37:22;20.10;;;13.43;;
61389;SDS011;47260;48.274;19.814;2023-04-25T02:38:53;21.63;;;13.77;;
61389;SDS011;47260;48.274;19.814;2023-04-25T02:40:26;19.00;;;13.27;;
61389;SDS011;47260;48.274;19.814;2023-04-25T02:41:58;18.70;;;12.82;;
61389;SDS011;47260;48.274;19.814;2023-04-25T02:43:33;16.55;;;12.10;;
61389;SDS011;47260;48.274;19.814;2023-04-25T02:45:05;18.38;;;11.68;;
61389;SDS011;47260;48.274;19.814;2023-04-25T02:46:38;18.27;;;12.52;;
61389;SDS011;47260;48.274;19.814;2023-04-25T02:48:10;19.10;;;11.90;;
61389;SDS011;47260;48.274;19.814;2023-04-25T02:49:42;16.83;;;11.52;;
61389;SDS011;47260;48.274;19.814;2023-04-25T02:51:14;15.57;;;11.27;;
61389;SDS011;47260;48.274;19.814;2023-04-25T02:52:47;16.10;;;10.57;;
61389;SDS011;47260;48.274;19.814;2023-04-25T02:54:23;14.77;;;11.35;;
61389;SDS011;47260;48.274;19.814;2023-04-25T02:55:56;16.65;;;10.90;;
61389;SDS011;47260;48.274;19.814;2023-04-25T02:57:29;18.13;;;11.02;;
61389;SDS011;47260;48.274;19.814;2023-04-25T02:59:00;15.30;;;11.80;;
61389;SDS011;47260;48.274;19.814;2023-04-25T03:00:33;15.52;;;10.73;;
61389;SDS011;47260;48.274;19.814;2023-04-25T03:02:05;17.75;;;11.90;;
61389;SDS011;47260;48.274;19.814;2023-04-25T03:03:37;12.75;;;10.32;;
61389;SDS011;47260;48.274;19.814;2023-04-25T03:05:08;13.32;;;10.50;;
61389;SDS011;47260;48.274;19.814;2023-04-25T03:06:41;14.63;;;9.93;;
61389;SDS011;47260;48.274;19.814;2023-04-25T03:08:13;13.48;;;10.20;;
61389;SDS011;47260;48.274;19.814;2023-04-25T03:09:45;12.30;;;9.48;;
61389;SDS011;47260;48.274;19.814;2023-04-25T03:11:18;14.25;;;10.60;;
61389;SDS011;47260;48.274;19.814;2023-04-25T03:12:51;14.00;;;10.60;;
61389;SDS011;47260;48.274;19.814;2023-04-25T03:14:23;14.00;;;10.25;;
61389;SDS011;47260;48.274;19.814;2023-04-25T03:15:55;11.95;;;9.43;;
61389;SDS011;47260;48.274;19.814;2023-04-25T03:17:27;13.07;;;9.68;;
61389;SDS011;47260;48.274;19.814;2023-04-25T03:18:59;13.88;;;10.13;;
61389;SDS011;47260;48.274;19.814;2023-04-25T03:20:31;13.32;;;9.48;;
61389;SDS011;47260;48.274;19.814;2023-04-25T03:22:01;12.50;;;9.25;;
61389;SDS011;47260;48.274;19.814;2023-04-25T03:23:33;13.05;;;9.40;;
61389;SDS011;47260;48.274;19.814;2023-04-25T03:25:05;11.00;;;9.48;;
61389;SDS011;47260;48.274;19.814;2023-04-25T03:26:40;11.77;;;8.80;;
61389;SDS011;47260;48.274;19.814;2023-04-25T03:28:12;10.90;;;8.80;;
61389;SDS011;47260;48.274;19.814;2023-04-25T03:29:44;13.73;;;8.20;;
61389;SDS011;47260;48.274;19.814;2023-04-25T03:31:17;12.70;;;8.32;;
61389;SDS011;47260;48.274;19.814;2023-04-25T03:32:49;12.50;;;8.30;;
61389;SDS011;47260;48.274;19.814;2023-04-25T03:34:21;11.52;;;8.18;;
61389;SDS011;47260;48.274;19.814;2023-04-25T03:35:53;11.57;;;8.73;;
61389;SDS011;47260;48.274;19.814;2023-04-25T03:37:25;9.30;;;8.15;;
61389;SDS011;47260;48.274;19.814;2023-04-25T03:38:57;11.57;;;9.15;;
61389;SDS011;47260;48.274;19.814;2023-04-25T03:40:29;11.90;;;8.10;;
61389;SDS011;47260;48.274;19.814;2023-04-25T03:42:23;9.30;;;8.05;;
61389;SDS011;47260;48.274;19.814;2023-04-25T03:43:57;10.77;;;8.50;;
61389;SDS011;47260;48.274;19.814;2023-04-25T03:45:31;10.65;;;8.35;;
61389;SDS011;47260;48.274;19.814;2023-04-25T03:47:02;11.40;;;8.75;;
61389;SDS011;47260;48.274;19.814;2023-04-25T03:48:34;9.73;;;8.05;;
61389;SDS011;47260;48.274;19.814;2023-04-25T03:50:07;11.43;;;8.35;;
61389;SDS011;47260;48.274;19.814;2023-04-25T03:51:40;11.20;;;8.20;;
61389;SDS011;47260;48.274;19.814;2023-04-25T03:53:12;11.23;;;7.93;;
61389;SDS011;47260;48.274;19.814;2023-04-25T03:55:04;11.88;;;7.30;;
61389;SDS011;47260;48.274;19.814;2023-04-25T03:56:36;7.47;;;6.22;;
61389;SDS011;47260;48.274;19.814;2023-04-25T03:58:20;5.72;;;4.32;;
61389;SDS011;47260;48.274;19.814;2023-04-25T03:59:53;5.93;;;5.10;;
61389;SDS011;47260;48.274;19.814;2023-04-25T04:01:26;7.13;;;4.40;;
61389;SDS011;47260;48.274;19.814;2023-04-25T04:02:57;4.78;;;4.00;;
61389;SDS011;47260;48.274;19.814;2023-04-25T04:04:29;5.25;;;4.57;;
61389;SDS011;47260;48.274;19.814;2023-04-25T04:06:01;5.30;;;4.80;;
61389;SDS011;47260;48.274;19.814;2023-04-25T04:07:35;5.57;;;5.05;;
61389;SDS011;47260;48.274;19.814;2023-04-25T04:09:10;5.65;;;5.05;;
61389;SDS011;47260;48.274;19.814;2023-04-25T04:10:45;7.18;;;5.07;;
61389;SDS011;47260;48.274;19.814;2023-04-25T04:12:17;7.40;;;5.63;;
61389;SDS011;47260;48.274;19.814;2023-04-25T04:13:50;10.07;;;4.90;;
61389;SDS011;47260;48.274;19.814;2023-04-25T04:15:22;5.47;;;4.95;;
61389;SDS011;47260;48.274;19.814;2023-04-25T04:16:54;5.57;;;4.90;;
61389;SDS011;47260;48.274;19.814;2023-04-25T04:18:27;7.38;;;5.80;;
61389;SDS011;47260;48.274;19.814;2023-04-25T04:20:00;6.65;;;5.85;;
61389;SDS011;47260;48.274;19.814;2023-04-25T04:21:35;6.50;;;5.70;;
61389;SDS011;47260;48.274;19.814;2023-04-25T04:23:07;7.03;;;5.32;;
61389;SDS011;47260;48.274;19.814;2023-04-25T04:24:38;6.35;;;5.75;;
61389;SDS011;47260;48.274;19.814;2023-04-25T04:26:11;7.03;;;5.72;;
61389;SDS011;47260;48.274;19.814;2023-04-25T04:27:49;8.40;;;4.65;;
61389;SDS011;47260;48.274;19.814;2023-04-25T04:29:49;5.60;;;4.90;;
61389;SDS011;47260;48.274;19.814;2023-04-25T04:31:38;4.78;;;4.15;;
61389;SDS011;47260;48.274;19.814;2023-04-25T04:33:10;4.47;;;3.90;;
61389;SDS011;47260;48.274;19.814;2023-04-25T04:34:42;4.72;;;3.67;;
61389;SDS011;47260;48.274;19.814;2023-04-25T04:36:18;5.00;;;3.30;;
61389;SDS011;47260;48.274;19.814;2023-04-25T04:37:52;4.22;;;3.42;;
61389;SDS011;47260;48.274;19.814;2023-04-25T04:39:26;3.33;;;3.03;;
61389;SDS011;47260;48.274;19.814;2023-04-25T04:41:08;3.55;;;3.25;;
61389;SDS011;47260;48.274;19.814;2023-04-25T04:42:58;3.53;;;3.22;;
61389;SDS011;47260;48.274;19.814;2023-04-25T04:44:41;3.15;;;2.88;;
61389;SDS011;47260;48.274;19.814;2023-04-25T04:46:39;3.65;;;2.45;;
61389;SDS011;47260;48.274;19.814;2023-04-25T04:48:18;3.15;;;2.83;;
61389;SDS011;47260;48.274;19.814;2023-04-25T04:50:10;6.07;;;2.80;;
61389;SDS011;47260;48.274;19.814;2023-04-25T04:52:08;4.00;;;2.25;;
61389;SDS011;47260;48.274;19.814;2023-04-25T04:53:51;3.17;;;2.50;;
61389;SDS011;47260;48.274;19.814;2023-04-25T04:55:42;4.00;;;2.50;;
61389;SDS011;47260;48.274;19.814;2023-04-25T04:57:32;3.25;;;2.22;;
61389;SDS011;47260;48.274;19.814;2023-04-25T04:59:23;2.67;;;2.40;;
61389;SDS011;47260;48.274;19.814;2023-04-25T05:01:21;3.10;;;2.40;;
61389;SDS011;47260;48.274;19.814;2023-04-25T05:03:21;2.60;;;2.25;;
61389;SDS011;47260;48.274;19.814;2023-04-25T05:05:03;2.45;;;2.25;;
61389;SDS011;47260;48.274;19.814;2023-04-25T05:07:01;2.40;;;2.20;;
61389;SDS011;47260;48.274;19.814;2023-04-25T05:08:35;2.60;;;1.75;;
61389;SDS011;47260;48.274;19.814;2023-04-25T05:10:22;2.13;;;1.92;;
61389;SDS011;47260;48.274;19.814;2023-04-25T05:12:23;2.38;;;2.03;;
61389;SDS011;47260;48.274;19.814;2023-04-25T05:14:02;2.47;;;2.10;;
61389;SDS011;47260;48.274;19.814;2023-04-25T05:15:48;2.10;;;1.80;;
61389;SDS011;47260;48.274;19.814;2023-04-25T05:17:42;3.97;;;2.22;;
61389;SDS011;47260;48.274;19.814;2023-04-25T05:19:45;1.90;;;1.70;;
61389;SDS011;47260;48.274;19.814;2023-04-25T05:21:35;2.97;;;2.05;;
61389;SDS011;47260;48.274;19.814;2023-04-25T05:23:33;1.90;;;1.80;;
61389;SDS011;47260;48.274;19.814;2023-04-25T05:25:27;2.42;;;1.92;;
61389;SDS011;47260;48.274;19.814;2023-04-25T05:27:04;1.60;;;1.50;;
61389;SDS011;47260;48.274;19.814;2023-04-25T05:28:58;2.15;;;1.95;;
61389;SDS011;47260;48.274;19.814;2023-04-25T05:32:24;3.10;;;1.80;;
61389;SDS011;47260;48.274;19.814;2023-04-25T05:33:56;2.53;;;1.88;;
61389;SDS011;47260;48.274;19.814;2023-04-25T05:35:34;1.98;;;1.77;;
61389;SDS011;47260;48.274;19.814;2023-04-25T05:37:06;2.00;;;1.80;;
61389;SDS011;47260;48.274;19.814;2023-04-25T05:38:43;3.05;;;1.95;;
61389;SDS011;47260;48.274;19.814;2023-04-25T05:40:18;1.92;;;1.63;;
61389;SDS011;47260;48.274;19.814;2023-04-25T05:42:28;2.13;;;1.87;;
61389;SDS011;47260;48.274;19.814;2023-04-25T05:44:08;1.60;;;1.50;;
61389;SDS011;47260;48.274;19.814;2023-04-25T05:46:03;3.72;;;1.73;;
61389;SDS011;47260;48.274;19.814;2023-04-25T05:47:48;1.60;;;1.50;;
61389;SDS011;47260;48.274;19.814;2023-04-25T05:49:25;2.22;;;1.90;;
61389;SDS011;47260;48.274;19.814;2023-04-25T05:50:58;3.88;;;2.00;;
61389;SDS011;47260;48.274;19.814;2023-04-25T05:52:49;2.75;;;1.80;;
61389;SDS011;47260;48.274;19.814;2023-04-25T05:54:35;4.65;;;2.83;;
61389;SDS011;47260;48.274;19.814;2023-04-25T05:56:08;5.70;;;2.70;;
61389;SDS011;47260;48.274;19.814;2023-04-25T05:57:39;3.13;;;2.25;;
61389;SDS011;47260;48.274;19.814;2023-04-25T05:59:15;4.20;;;2.20;;
61389;SDS011;47260;48.274;19.814;2023-04-25T06:00:47;3.55;;;2.40;;
61389;SDS011;47260;48.274;19.814;2023-04-25T06:02:19;4.03;;;2.58;;
61389;SDS011;47260;48.274;19.814;2023-04-25T06:03:52;4.78;;;2.17;;
61389;SDS011;47260;48.274;19.814;2023-04-25T06:05:24;2.38;;;2.08;;
61389;SDS011;47260;48.274;19.814;2023-04-25T06:06:57;2.50;;;1.65;;
61389;SDS011;47260;48.274;19.814;2023-04-25T06:08:31;2.20;;;1.83;;
61389;SDS011;47260;48.274;19.814;2023-04-25T06:10:03;2.80;;;2.08;;
61389;SDS011;47260;48.274;19.814;2023-04-25T06:11:36;2.28;;;1.98;;
61389;SDS011;47260;48.274;19.814;2023-04-25T06:13:09;4.43;;;2.25;;
61389;SDS011;47260;48.274;19.814;2023-04-25T06:14:41;2.20;;;1.77;;
61389;SDS011;47260;48.274;19.814;2023-04-25T06:16:12;2.42;;;1.90;;
61389;SDS011;47260;48.274;19.814;2023-04-25T06:17:44;2.50;;;1.85;;
61389;SDS011;47260;48.274;19.814;2023-04-25T06:19:16;2.22;;;2.03;;
61389;SDS011;47260;48.274;19.814;2023-04-25T06:20:48;2.75;;;1.80;;
61389;SDS011;47260;48.274;19.814;2023-04-25T06:22:23;2.60;;;1.70;;
61389;SDS011;47260;48.274;19.814;2023-04-25T06:23:54;1.83;;;1.73;;
61389;SDS011;47260;48.274;19.814;2023-04-25T06:25:27;1.85;;;1.75;;
61389;SDS011;47260;48.274;19.814;2023-04-25T06:26:59;1.75;;;1.65;;
61389;SDS011;47260;48.274;19.814;2023-04-25T06:28:31;1.60;;;1.50;;
61389;SDS011;47260;48.274;19.814;2023-04-25T06:30:04;2.33;;;1.45;;
61389;SDS011;47260;48.274;19.814;2023-04-25T06:31:37;1.65;;;1.50;;
61389;SDS011;47260;48.274;19.814;2023-04-25T06:33:11;1.95;;;1.65;;
61389;SDS011;47260;48.274;19.814;2023-04-25T06:34:44;2.25;;;1.55;;
61389;SDS011;47260;48.274;19.814;2023-04-25T06:36:16;1.92;;;1.38;;
61389;SDS011;47260;48.274;19.814;2023-04-25T06:37:52;3.65;;;1.90;;
61389;SDS011;47260;48.274;19.814;2023-04-25T06:39:26;1.60;;;1.50;;
61389;SDS011;47260;48.274;19.814;2023-04-25T06:40:59;3.17;;;1.77;;
61389;SDS011;47260;48.274;19.814;2023-04-25T06:42:34;1.95;;;1.85;;
61389;SDS011;47260;48.274;19.814;2023-04-25T06:44:26;1.42;;;1.33;;
61389;SDS011;47260;48.274;19.814;2023-04-25T06:45:59;1.98;;;1.40;;
61389;SDS011;47260;48.274;19.814;2023-04-25T06:47:33;1.38;;;1.27;;
61389;SDS011;47260;48.274;19.814;2023-04-25T06:49:05;2.30;;;1.30;;
61389;SDS011;47260;48.274;19.814;2023-04-25T06:50:37;1.63;;;1.17;;
61389;SDS011;47260;48.274;19.814;2023-04-25T06:52:09;1.33;;;1.23;;
61389;SDS011;47260;48.274;19.814;2023-04-25T06:53:43;1.50;;;1.38;;
61389;SDS011;47260;48.274;19.814;2023-04-25T06:55:25;1.60;;;1.50;;
61389;SDS011;47260;48.274;19.814;2023-04-25T06:57:08;1.58;;;1.42;;
61389;SDS011;47260;48.274;19.814;2023-04-25T06:58:40;2.03;;;1.40;;
61389;SDS011;47260;48.274;19.814;2023-04-25T07:00:17;1.45;;;1.23;;
61389;SDS011;47260;48.274;19.814;2023-04-25T07:01:49;1.60;;;1.50;;
61389;SDS011;47260;48.274;19.814;2023-04-25T07:03:25;1.52;;;1.42;;
61389;SDS011;47260;48.274;19.814;2023-04-25T07:05:01;3.67;;;1.67;;
61389;SDS011;47260;48.274;19.814;2023-04-25T07:06:34;1.45;;;1.30;;
61389;SDS011;47260;48.274;19.814;2023-04-25T07:08:08;4.07;;;1.60;;
61389;SDS011;47260;48.274;19.814;2023-04-25T07:09:41;1.65;;;1.55;;
61389;SDS011;47260;48.274;19.814;2023-04-25T07:11:13;3.50;;;1.55;;
61389;SDS011;47260;48.274;19.814;2023-04-25T07:12:44;1.70;;;1.35;;
61389;SDS011;47260;48.274;19.814;2023-04-25T07:14:16;4.63;;;1.58;;
61389;SDS011;47260;48.274;19.814;2023-04-25T07:15:49;1.10;;;1.08;;
61389;SDS011;47260;48.274;19.814;2023-04-25T07:17:23;2.65;;;1.27;;
61389;SDS011;47260;48.274;19.814;2023-04-25T07:18:55;1.20;;;1.10;;
61389;SDS011;47260;48.274;19.814;2023-04-25T07:20:27;1.85;;;1.25;;
61389;SDS011;47260;48.274;19.814;2023-04-25T07:22:01;1.38;;;1.20;;
61389;SDS011;47260;48.274;19.814;2023-04-25T07:23:33;1.55;;;1.27;;
61389;SDS011;47260;48.274;19.814;2023-04-25T07:25:13;1.60;;;1.48;;
61389;SDS011;47260;48.274;19.814;2023-04-25T07:26:45;1.40;;;1.30;;
61389;SDS011;47260;48.274;19.814;2023-04-25T07:28:36;1.42;;;1.27;;
61389;SDS011;47260;48.274;19.814;2023-04-25T07:30:08;3.70;;;1.20;;
61389;SDS011;47260;48.274;19.814;2023-04-25T07:31:42;1.25;;;1.13;;
61389;SDS011;47260;48.274;19.814;2023-04-25T07:33:14;1.63;;;1.23;;
61389;SDS011;47260;48.274;19.814;2023-04-25T07:34:46;1.30;;;0.93;;
61389;SDS011;47260;48.274;19.814;2023-04-25T07:36:17;1.73;;;1.55;;
61389;SDS011;47260;48.274;19.814;2023-04-25T07:37:49;2.17;;;1.48;;
61389;SDS011;47260;48.274;19.814;2023-04-25T07:39:23;2.35;;;1.23;;
61389;SDS011;47260;48.274;19.814;2023-04-25T07:40:57;1.55;;;1.40;;
61389;SDS011;47260;48.274;19.814;2023-04-25T07:42:29;3.17;;;1.45;;
61389;SDS011;47260;48.274;19.814;2023-04-25T07:44:01;2.28;;;1.45;;
61389;SDS011;47260;48.274;19.814;2023-04-25T07:45:35;1.23;;;1.13;;
61389;SDS011;47260;48.274;19.814;2023-04-25T07:47:07;2.85;;;2.05;;
61389;SDS011;47260;48.274;19.814;2023-04-25T07:48:40;3.65;;;1.48;;
61389;SDS011;47260;48.274;19.814;2023-04-25T07:50:12;1.98;;;1.67;;
61389;SDS011;47260;48.274;19.814;2023-04-25T07:51:44;1.38;;;1.27;;
61389;SDS011;47260;48.274;19.814;2023-04-25T07:53:18;1.33;;;1.20;;
61389;SDS011;47260;48.274;19.814;2023-04-25T07:55:05;1.75;;;1.50;;
61389;SDS011;47260;48.274;19.814;2023-04-25T07:57:08;1.48;;;1.33;;
61389;SDS011;47260;48.274;19.814;2023-04-25T07:58:40;1.55;;;0.93;;
61389;SDS011;47260;48.274;19.814;2023-04-25T08:00:15;2.17;;;1.40;;
61389;SDS011;47260;48.274;19.814;2023-04-25T08:01:54;1.08;;;1.00;;
61389;SDS011;47260;48.274;19.814;2023-04-25T08:03:28;1.00;;;1.00;;
61389;SDS011;47260;48.274;19.814;2023-04-25T08:05:02;1.67;;;1.40;;
61389;SDS011;47260;48.274;19.814;2023-04-25T08:06:33;1.02;;;1.02;;
61389;SDS011;47260;48.274;19.814;2023-04-25T08:08:13;1.13;;;1.10;;
61389;SDS011;47260;48.274;19.814;2023-04-25T08:09:45;1.48;;;1.05;;
61389;SDS011;47260;48.274;19.814;2023-04-25T08:11:26;1.30;;;1.10;;
61389;SDS011;47260;48.274;19.814;2023-04-25T08:12:59;2.15;;;1.10;;
61389;SDS011;47260;48.274;19.814;2023-04-25T08:14:31;1.10;;;0.85;;
61389;SDS011;47260;48.274;19.814;2023-04-25T08:16:07;1.20;;;1.10;;
61389;SDS011;47260;48.274;19.814;2023-04-25T08:17:39;1.85;;;1.00;;
61389;SDS011;47260;48.274;19.814;2023-04-25T08:19:11;1.25;;;1.00;;
61389;SDS011;47260;48.274;19.814;2023-04-25T08:20:43;1.13;;;0.98;;
61389;SDS011;47260;48.274;19.814;2023-04-25T08:22:16;1.10;;;1.00;;
61389;SDS011;47260;48.274;19.814;2023-04-25T08:23:56;1.98;;;1.40;;
61389;SDS011;47260;48.274;19.814;2023-04-25T08:25:32;2.05;;;0.82;;
61389;SDS011;47260;48.274;19.814;2023-04-25T08:27:04;3.42;;;1.00;;
61389;SDS011;47260;48.274;19.814;2023-04-25T08:28:38;2.45;;;1.45;;
61389;SDS011;47260;48.274;19.814;2023-04-25T08:30:10;1.10;;;1.10;;
61389;SDS011;47260;48.274;19.814;2023-04-25T08:31:44;2.83;;;1.25;;
61389;SDS011;47260;48.274;19.814;2023-04-25T08:33:17;1.35;;;0.93;;
61389;SDS011;47260;48.274;19.814;2023-04-25T08:35:04;1.95;;;1.17;;
61389;SDS011;47260;48.274;19.814;2023-04-25T08:36:37;1.15;;;1.02;;
61389;SDS011;47260;48.274;19.814;2023-04-25T08:38:09;1.40;;;1.20;;
61389;SDS011;47260;48.274;19.814;2023-04-25T08:39:43;1.02;;;0.95;;
61389;SDS011;47260;48.274;19.814;2023-04-25T08:41:38;1.95;;;1.02;;
61389;SDS011;47260;48.274;19.814;2023-04-25T08:43:12;1.75;;;1.00;;
61389;SDS011;47260;48.274;19.814;2023-04-25T08:44:47;1.33;;;1.02;;
61389;SDS011;47260;48.274;19.814;2023-04-25T08:46:20;1.23;;;1.00;;
61389;SDS011;47260;48.274;19.814;2023-04-25T08:48:10;1.48;;;1.13;;
61389;SDS011;47260;48.274;19.814;2023-04-25T08:49:45;2.08;;;1.10;;
61389;SDS011;47260;48.274;19.814;2023-04-25T08:51:21;2.30;;;1.33;;
61389;SDS011;47260;48.274;19.814;2023-04-25T08:52:54;3.42;;;1.25;;
61389;SDS011;47260;48.274;19.814;2023-04-25T08:54:32;2.40;;;1.35;;
61389;SDS011;47260;48.274;19.814;2023-04-25T08:56:05;2.08;;;0.93;;
61389;SDS011;47260;48.274;19.814;2023-04-25T08:57:40;1.40;;;1.13;;
61389;SDS011;47260;48.274;19.814;2023-04-25T08:59:13;1.77;;;1.08;;
61389;SDS011;47260;48.274;19.814;2023-04-25T09:00:48;1.15;;;1.05;;
61389;SDS011;47260;48.274;19.814;2023-04-25T09:02:24;1.40;;;0.98;;
61389;SDS011;47260;48.274;19.814;2023-04-25T09:03:57;1.25;;;1.02;;
61389;SDS011;47260;48.274;19.814;2023-04-25T09:05:29;1.23;;;1.00;;
61389;SDS011;47260;48.274;19.814;2023-04-25T09:07:00;1.83;;;0.95;;
61389;SDS011;47260;48.274;19.814;2023-04-25T09:08:33;1.63;;;1.00;;
61389;SDS011;47260;48.274;19.814;2023-04-25T09:10:06;1.35;;;0.95;;
61389;SDS011;47260;48.274;19.814;2023-04-25T09:11:40;1.33;;;0.98;;
61389;SDS011;47260;48.274;19.814;2023-04-25T09:13:20;3.50;;;1.05;;
61389;SDS011;47260;48.274;19.814;2023-04-25T09:15:14;3.67;;;1.35;;
61389;SDS011;47260;48.274;19.814;2023-04-25T09:17:10;1.98;;;1.38;;
61389;SDS011;47260;48.274;19.814;2023-04-25T09:18:45;2.30;;;1.30;;
61389;SDS011;47260;48.274;19.814;2023-04-25T09:20:18;3.55;;;1.35;;
61389;SDS011;47260;48.274;19.814;2023-04-25T09:21:50;2.10;;;1.30;;